Time;durP1;ratioP1;P1;durP2;ratioP2;P2;SDS_P1;SDS_P2;PMS_P1;PMS_P2;Temp;Humidity;BMP_temperature;BMP_pressure;BME280_temperature;BME280_humidity;BME280_pressure;Samples;Min_cycle;Max_cycle;Signal;HPM_P1;HPM_P2
2023/01/13 00:00:49;;;;;;;31.88;6.97;;;8.40;99.90;;;;;;5066159;28;20041;-73
2023/01/13 00:03:16;;;;;;;23.38;5.97;;;8.40;99.90;;;;;;5046293;28;20509;-73
2023/01/13 00:05:45;;;;;;;38.55;7.85;;;8.30;99.90;;;;;;5055800;28;20040;-72
2023/01/13 00:08:11;;;;;;;34.00;7.60;;;8.30;99.90;;;;;;5072914;28;20045;-73
2023/01/13 00:10:37;;;;;;;35.75;5.82;;;8.40;99.90;;;;;;5072791;28;20051;-73
2023/01/13 00:13:04;;;;;;;25.70;5.88;;;8.40;99.90;;;;;;5072408;28;20044;-72
2023/01/13 00:15:31;;;;;;;35.92;7.32;;;8.40;99.90;;;;;;5063453;28;20040;-72
2023/01/13 00:17:57;;;;;;;33.33;8.75;;;8.40;99.90;;;;;;5073219;28;20048;-72
2023/01/13 00:20:23;;;;;;;25.88;5.90;;;8.30;99.90;;;;;;5072822;28;20036;-72
2023/01/13 00:22:49;;;;;;;29.52;6.13;;;8.30;99.90;;;;;;5064011;28;20041;-71
2023/01/13 00:25:15;;;;;;;28.75;6.80;;;8.30;99.90;;;;;;5047556;28;20044;-76
2023/01/13 00:27:41;;;;;;;32.83;6.40;;;8.20;99.90;;;;;;5038151;28;20049;-76
2023/01/13 00:30:07;;;;;;;37.35;6.45;;;8.20;99.90;;;;;;5039491;28;20713;-74
2023/01/13 00:32:33;;;;;;;31.33;6.40;;;8.10;99.90;;;;;;5053895;28;20044;-76
2023/01/13 00:34:59;;;;;;;25.67;6.90;;;8.10;99.90;;;;;;5072507;28;20050;-74
2023/01/13 00:37:25;;;;;;;33.58;7.03;;;8.10;99.90;;;;;;5073157;28;20408;-75
2023/01/13 00:39:51;;;;;;;42.40;7.50;;;8.00;99.90;;;;;;5030795;28;20041;-75
2023/01/13 00:45:03;;;;;;;36.38;6.28;;;8.00;99.90;;;;;;5054700;28;20055;-75
2023/01/13 00:47:30;;;;;;;30.23;6.13;;;8.00;99.90;;;;;;5055111;28;20032;-76
2023/01/13 00:49:56;;;;;;;39.53;8.43;;;8.00;99.90;;;;;;5038157;28;20075;-74
2023/01/13 00:52:22;;;;;;;31.67;5.68;;;8.00;99.90;;;;;;5072879;28;20040;-73
2023/01/13 00:54:47;;;;;;;33.08;6.63;;;8.00;99.90;;;;;;5054906;28;20404;-76
2023/01/13 00:57:14;;;;;;;27.17;6.28;;;8.00;99.90;;;;;;5054303;28;20090;-76
2023/01/13 00:59:40;;;;;;;27.25;6.95;;;8.00;99.90;;;;;;5072671;28;20040;-75
2023/01/13 01:02:06;;;;;;;27.75;7.25;;;8.00;99.90;;;;;;5054327;28;20083;-74
2023/01/13 01:04:32;;;;;;;45.42;7.25;;;8.00;99.90;;;;;;5072749;28;20412;-75
2023/01/13 01:06:58;;;;;;;27.95;6.07;;;8.10;99.90;;;;;;5038286;28;20446;-75
2023/01/13 01:09:31;;;;;;;34.80;5.57;;;8.00;99.90;;;;;;5054026;28;20119;-73
2023/01/13 01:11:58;;;;;;;40.63;6.88;;;8.00;99.90;;;;;;5054659;28;20118;-75
2023/01/13 01:14:24;;;;;;;29.75;6.78;;;8.00;99.90;;;;;;5054807;28;20368;-75
2023/01/13 01:16:50;;;;;;;29.77;5.97;;;8.00;99.90;;;;;;5051208;28;20090;-74
2023/01/13 01:19:17;;;;;;;30.43;7.30;;;8.00;99.90;;;;;;5063817;28;20043;-71
2023/01/13 01:21:43;;;;;;;23.55;5.40;;;8.00;99.90;;;;;;5037684;28;20041;-73
2023/01/13 01:24:09;;;;;;;31.75;7.00;;;8.00;99.90;;;;;;5071651;28;20082;-72
2023/01/13 01:26:35;;;;;;;24.38;5.47;;;8.10;99.90;;;;;;5072309;28;20049;-72
2023/01/13 01:29:03;;;;;;;31.83;6.63;;;8.10;99.90;;;;;;5044776;28;20151;-72
2023/01/13 01:31:31;;;;;;;33.30;6.90;;;8.10;99.90;;;;;;5061108;28;20079;-72
2023/01/13 01:33:58;;;;;;;29.23;6.15;;;8.10;99.90;;;;;;5042534;28;20036;-71
2023/01/13 01:36:25;;;;;;;25.70;5.50;;;8.00;99.90;;;;;;5034203;28;20373;-72
2023/01/13 01:38:51;;;;;;;30.92;5.35;;;8.00;99.90;;;;;;5033379;28;20079;-72
2023/01/13 01:41:23;;;;;;;34.38;6.15;;;8.00;99.90;;;;;;5052821;28;20048;-72
2023/01/13 01:43:58;;;;;;;29.13;6.18;;;8.00;99.90;;;;;;5049760;28;20052;-72
2023/01/13 01:46:25;;;;;;;31.67;6.88;;;8.00;99.90;;;;;;5051897;28;20120;-72
2023/01/13 01:48:52;;;;;;;32.22;7.25;;;8.00;99.90;;;;;;5034048;28;20370;-72
2023/01/13 01:51:18;;;;;;;27.30;6.30;;;8.00;99.90;;;;;;5051230;28;20441;-72
2023/01/13 01:53:44;;;;;;;38.97;7.07;;;8.00;99.90;;;;;;5051213;28;20055;-71
2023/01/13 01:56:10;;;;;;;31.38;6.40;;;8.10;99.90;;;;;;5071503;28;20115;-72
2023/01/13 01:58:54;;;;;;;32.03;8.45;;;8.10;99.90;;;;;;5053102;28;20068;-71
2023/01/13 02:01:20;;;;;;;30.92;7.70;;;8.20;99.90;;;;;;5053346;28;20048;-71
2023/01/13 02:03:55;;;;;;;26.15;7.00;;;8.30;99.90;;;;;;5053787;28;20067;-71
2023/01/13 02:06:22;;;;;;;25.15;6.22;;;8.40;99.90;;;;;;5070745;28;20036;-70
2023/01/13 02:08:48;;;;;;;37.75;7.47;;;8.50;99.90;;;;;;5071297;28;20036;-70
2023/01/13 02:14:23;;;;;;;32.30;5.30;;;8.50;99.90;;;;;;5062978;28;20087;-70
2023/01/13 02:17:31;;;;;;;34.92;7.40;;;8.50;99.90;;;;;;5035079;28;20111;-71
2023/01/13 02:20:18;;;;;;;29.23;6.30;;;8.50;99.90;;;;;;5043220;28;20103;-71
2023/01/13 02:26:36;;;;;;;32.40;6.70;;;8.50;99.90;;;;;;5052468;28;20082;-73
2023/01/13 02:32:34;;;;;;;24.02;6.13;;;8.40;99.90;;;;;;5052997;28;20516;-74
2023/01/13 02:35:27;;;;;;;30.45;5.93;;;8.40;99.90;;;;;;5039370;28;20569;-74
2023/01/13 02:37:55;;;;;;;30.67;5.53;;;8.40;99.90;;;;;;5038431;28;20128;-74
2023/01/13 02:40:40;;;;;;;32.78;5.85;;;8.30;99.90;;;;;;5050162;28;20041;-75
2023/01/13 02:46:16;;;;;;;28.88;5.00;;;8.40;99.90;;;;;;5043310;28;20228;-77
2023/01/13 02:48:45;;;;;;;24.98;5.82;;;8.30;99.90;;;;;;5041598;28;20102;-74
2023/01/13 02:51:17;;;;;;;37.67;5.95;;;8.30;99.90;;;;;;5040848;28;20054;-73
2023/01/13 02:54:06;;;;;;;26.70;5.25;;;8.20;99.90;;;;;;5040872;28;20044;-73
2023/01/13 02:56:37;;;;;;;32.47;6.25;;;8.20;99.90;;;;;;5041496;28;20041;-73
2023/01/13 02:59:03;;;;;;;26.10;5.50;;;8.20;99.90;;;;;;5033336;28;20448;-71
2023/01/13 03:01:32;;;;;;;28.33;5.28;;;8.30;99.90;;;;;;5049816;28;20051;-71
2023/01/13 03:04:14;;;;;;;24.38;5.95;;;8.30;99.90;;;;;;5047789;28;20110;-70
2023/01/13 03:06:55;;;;;;;26.20;5.30;;;8.30;99.90;;;;;;5051685;28;20051;-71
2023/01/13 03:09:25;;;;;;;28.48;4.60;;;8.40;99.90;;;;;;5037146;28;20116;-76
2023/01/13 03:12:14;;;;;;;26.77;6.20;;;8.40;99.90;;;;;;5070500;28;20094;-74
2023/01/13 03:15:39;;;;;;;26.45;5.38;;;8.40;99.90;;;;;;5052721;28;20127;-74
2023/01/13 03:18:10;;;;;;;26.35;6.43;;;8.40;99.90;;;;;;4953450;28;20054;-74
2023/01/13 03:20:43;;;;;;;24.15;5.47;;;8.40;99.90;;;;;;4969123;28;20423;-75
2023/01/13 03:23:18;;;;;;;31.95;5.60;;;8.40;99.90;;;;;;4952722;28;20097;-73
2023/01/13 03:25:55;;;;;;;34.22;5.90;;;8.40;99.90;;;;;;4969253;28;20053;-75
2023/01/13 03:28:32;;;;;;;32.55;5.68;;;8.40;99.90;;;;;;4953184;28;20051;-75
2023/01/13 03:31:07;;;;;;;34.53;5.93;;;8.40;99.90;;;;;;4968603;28;20491;-75
2023/01/13 03:33:39;;;;;;;29.30;5.65;;;8.30;99.90;;;;;;4953145;28;20050;-74
2023/01/13 03:36:09;;;;;;;26.38;6.40;;;8.30;99.90;;;;;;4977688;28;20054;-73
2023/01/13 03:38:44;;;;;;;32.42;5.75;;;8.20;99.90;;;;;;4988541;28;20587;-76
2023/01/13 03:41:23;;;;;;;30.88;7.18;;;8.20;99.90;;;;;;4988133;28;20054;-74
2023/01/13 03:47:01;;;;;;;32.78;6.90;;;8.20;99.90;;;;;;4988598;28;20411;-75
2023/01/13 03:49:46;;;;;;;34.03;5.95;;;8.20;99.90;;;;;;5042811;28;20049;-74
2023/01/13 03:52:20;;;;;;;25.83;4.97;;;8.20;99.90;;;;;;5031997;28;20037;-72
2023/01/13 03:55:19;;;;;;;32.97;7.13;;;8.20;99.90;;;;;;5050085;28;20037;-71
2023/01/13 03:58:13;;;;;;;40.97;7.20;;;8.20;99.90;;;;;;5013455;28;20068;-72
2023/01/13 04:01:06;;;;;;;34.58;6.57;;;8.20;99.90;;;;;;5032075;28;20042;-72
2023/01/13 04:04:00;;;;;;;31.67;6.72;;;8.20;99.90;;;;;;5027355;28;20516;-72
2023/01/13 04:06:53;;;;;;;21.38;4.93;;;8.10;99.90;;;;;;5052303;28;20099;-72
2023/01/13 04:09:35;;;;;;;23.95;5.55;;;8.10;99.90;;;;;;5027841;28;20037;-71
2023/01/13 04:12:19;;;;;;;26.52;5.72;;;8.00;99.90;;;;;;5028743;28;20048;-71
2023/01/13 04:14:45;;;;;;;36.42;7.00;;;8.00;99.90;;;;;;5026534;28;20188;-72
2023/01/13 04:17:11;;;;;;;26.08;6.85;;;8.00;99.90;;;;;;5044278;28;20051;-70
2023/01/13 04:19:37;;;;;;;45.10;8.60;;;8.00;99.90;;;;;;5034894;28;20126;-72
2023/01/13 04:22:03;;;;;;;21.13;5.55;;;8.00;99.90;;;;;;5035421;28;20073;-71
2023/01/13 04:24:28;;;;;;;33.28;6.32;;;8.00;99.90;;;;;;5027479;28;20052;-72
2023/01/13 04:26:55;;;;;;;29.00;5.47;;;8.00;99.90;;;;;;5014934;28;20050;-71
2023/01/13 04:29:21;;;;;;;31.85;6.50;;;8.10;99.90;;;;;;5031751;28;20064;-71
2023/01/13 04:31:47;;;;;;;21.85;4.65;;;8.10;99.90;;;;;;5010702;28;20104;-72
2023/01/13 04:34:13;;;;;;;27.95;5.47;;;8.20;99.90;;;;;;5050418;28;20029;-71
2023/01/13 04:36:39;;;;;;;22.70;5.90;;;8.20;99.90;;;;;;5053033;28;20041;-72
2023/01/13 04:39:04;;;;;;;24.60;5.80;;;8.30;99.90;;;;;;5052389;28;20040;-71
2023/01/13 04:41:56;;;;;;;26.20;5.88;;;8.30;99.90;;;;;;5035062;28;20045;-72
2023/01/13 04:44:16;;;;;;;33.92;7.80;;;8.30;99.90;;;;;;5043363;28;20095;-72
2023/01/13 04:46:42;;;;;;;31.52;7.45;;;8.30;99.90;;;;;;5054385;28;20076;-71
2023/01/13 04:49:07;;;;;;;22.65;5.60;;;8.30;99.90;;;;;;5072891;28;20040;-71
2023/01/13 04:51:33;;;;;;;28.25;5.65;;;8.30;99.90;;;;;;5054834;28;20093;-70
2023/01/13 04:53:59;;;;;;;28.25;5.30;;;8.30;99.90;;;;;;5037904;28;20079;-71
2023/01/13 04:56:25;;;;;;;23.75;5.07;;;8.30;99.90;;;;;;5072572;28;20489;-72
2023/01/13 04:58:50;;;;;;;25.95;5.55;;;8.40;99.90;;;;;;5049666;28;20079;-71
2023/01/13 05:01:16;;;;;;;27.45;5.13;;;8.40;99.90;;;;;;5068824;28;20047;-70
2023/01/13 05:03:42;;;;;;;29.50;4.97;;;8.40;99.90;;;;;;5072726;28;20047;-72
2023/01/13 05:06:08;;;;;;;26.83;5.72;;;8.40;99.90;;;;;;5069952;28;20124;-70
2023/01/13 05:08:33;;;;;;;20.27;5.25;;;8.40;99.90;;;;;;5038070;28;20036;-72
2023/01/13 05:11:00;;;;;;;18.52;4.93;;;8.40;99.90;;;;;;5072467;28;20036;-71
2023/01/13 05:18:55;;;;;;;24.42;6.20;;;8.30;99.90;;;;;;5051030;28;20430;-75
2023/01/13 05:26:51;;;;;;;27.98;6.47;;;8.30;99.90;;;;;;5045474;28;20107;-73
2023/01/13 05:29:17;;;;;;;29.80;4.85;;;8.40;99.90;;;;;;5040860;28;20040;-75
2023/01/13 05:31:42;;;;;;;23.40;5.03;;;8.30;99.90;;;;;;5052048;28;20076;-73
2023/01/13 05:34:08;;;;;;;22.50;4.65;;;8.30;99.90;;;;;;5051954;28;20045;-74
2023/01/13 05:36:34;;;;;;;28.60;5.65;;;8.40;99.90;;;;;;5053563;28;20041;-71
2023/01/13 05:39:00;;;;;;;27.77;5.00;;;8.40;99.90;;;;;;5072067;28;20492;-75
2023/01/13 05:44:10;;;;;;;24.80;5.97;;;8.40;99.90;;;;;;5033140;28;20052;-76
2023/01/13 05:46:37;;;;;;;31.58;5.22;;;8.40;99.90;;;;;;5034265;28;20049;-75
2023/01/13 05:49:04;;;;;;;26.15;5.07;;;8.50;99.90;;;;;;5033510;28;20041;-72
2023/01/13 05:51:30;;;;;;;24.10;4.43;;;8.50;99.90;;;;;;5060287;28;20454;-73
2023/01/13 05:53:58;;;;;;;23.98;4.68;;;8.50;99.90;;;;;;5042272;28;20052;-74
2023/01/13 05:56:23;;;;;;;17.58;4.60;;;8.50;99.90;;;;;;5038595;28;20430;-77
2023/01/13 05:58:49;;;;;;;19.98;4.07;;;8.50;99.90;;;;;;5046318;28;20126;-73
2023/01/13 06:01:15;;;;;;;22.60;4.22;;;8.50;99.90;;;;;;5042916;28;20037;-72
2023/01/13 06:03:40;;;;;;;20.65;4.97;;;8.50;99.90;;;;;;5043229;28;20377;-74
2023/01/13 06:06:07;;;;;;;18.20;3.70;;;8.50;99.90;;;;;;5071373;28;20505;-74
2023/01/13 06:08:33;;;;;;;19.70;4.00;;;8.50;99.90;;;;;;5053397;28;20111;-76
2023/01/13 06:10:59;;;;;;;20.05;3.88;;;8.50;99.90;;;;;;5070742;28;20158;-75
2023/01/13 06:13:25;;;;;;;18.08;4.18;;;8.50;99.90;;;;;;5053220;28;20041;-74
2023/01/13 06:15:54;;;;;;;18.45;3.10;;;8.40;99.90;;;;;;5062362;28;20047;-75
2023/01/13 06:18:20;;;;;;;13.10;3.35;;;8.40;99.90;;;;;;5070685;28;20502;-75
2023/01/13 06:20:46;;;;;;;22.35;4.00;;;8.40;99.90;;;;;;5053132;28;20072;-76
2023/01/13 06:23:11;;;;;;;15.35;3.50;;;8.50;99.90;;;;;;5033311;28;20504;-75
2023/01/13 06:26:04;;;;;;;17.10;3.70;;;8.40;99.90;;;;;;5050677;28;20045;-73
2023/01/13 06:28:30;;;;;;;17.83;3.83;;;8.50;99.90;;;;;;5051149;28;20113;-71
2023/01/13 06:31:01;;;;;;;22.25;4.55;;;8.50;99.90;;;;;;5052489;28;20048;-75
2023/01/13 06:33:32;;;;;;;19.92;3.58;;;8.50;99.90;;;;;;5070994;28;20056;-76
2023/01/13 06:36:02;;;;;;;17.42;3.75;;;8.40;99.90;;;;;;5060652;28;20455;-75
2023/01/13 06:38:32;;;;;;;19.27;4.15;;;8.40;99.90;;;;;;5035593;28;20496;-71
2023/01/13 06:40:58;;;;;;;;;;;8.40;99.90;;;;;;5071345;28;20040;-72
2023/01/13 06:43:24;;;;;;;17.35;3.72;;;8.40;99.90;;;;;;5052810;28;20384;-72
2023/01/13 06:45:52;;;;;;;19.67;3.80;;;8.30;99.90;;;;;;5070431;28;20094;-70
2023/01/13 06:48:23;;;;;;;15.27;4.15;;;8.30;99.90;;;;;;5070663;28;20047;-70
2023/01/13 06:50:48;;;;;;;24.80;4.25;;;8.40;99.90;;;;;;5036054;28;20048;-71
2023/01/13 06:53:15;;;;;;;19.85;4.15;;;8.30;99.90;;;;;;5052054;28;20044;-71
2023/01/13 06:55:40;;;;;;;18.45;2.80;;;8.30;99.90;;;;;;5052960;28;20094;-69
2023/01/13 06:58:06;;;;;;;21.02;3.42;;;8.20;99.90;;;;;;5044061;28;20501;-69
2023/01/13 07:00:35;;;;;;;19.00;3.63;;;8.20;99.90;;;;;;5031269;28;20041;-70
2023/01/13 07:03:09;;;;;;;20.95;4.25;;;8.10;99.90;;;;;;5066232;28;20419;-71
2023/01/13 07:05:35;;;;;;;23.50;3.78;;;8.10;99.90;;;;;;5052583;28;20122;-72
2023/01/13 07:08:01;;;;;;;18.58;4.07;;;8.00;99.90;;;;;;5051974;28;20045;-71
2023/01/13 07:10:27;;;;;;;21.27;4.55;;;8.00;99.90;;;;;;5036314;28;20093;-71
2023/01/13 07:15:37;;;;;;;23.17;3.97;;;7.90;99.90;;;;;;5043899;28;20049;-71
2023/01/13 07:18:03;;;;;;;25.85;4.80;;;7.80;99.90;;;;;;5052321;28;20127;-71
2023/01/13 07:20:29;;;;;;;22.33;4.63;;;7.70;99.90;;;;;;5051772;28;20070;-71
2023/01/13 07:22:56;;;;;;;25.88;5.78;;;7.70;99.90;;;;;;5052191;28;20492;-71
2023/01/13 07:25:22;;;;;;;22.23;4.53;;;7.60;99.90;;;;;;5070596;28;20040;-70
2023/01/13 07:27:48;;;;;;;27.00;5.85;;;7.60;99.90;;;;;;5051831;28;20040;-70
2023/01/13 07:30:14;;;;;;;19.08;3.95;;;7.60;99.90;;;;;;5052243;28;20496;-70
2023/01/13 07:32:40;;;;;;;19.95;4.28;;;7.60;99.90;;;;;;5070076;28;20527;-69
2023/01/13 07:35:06;;;;;;;28.30;5.68;;;7.60;99.90;;;;;;5051845;28;20036;-73
2023/01/13 07:37:38;;;;;;;24.80;5.40;;;7.60;99.90;;;;;;5052515;28;20040;-70
2023/01/13 07:40:04;;;;;;;21.83;4.35;;;7.60;99.90;;;;;;5052272;28;20054;-71
2023/01/13 07:45:14;;;;;;;16.83;4.88;;;7.60;99.90;;;;;;5073877;28;20063;-70
2023/01/13 07:47:40;;;;;;;26.23;6.15;;;7.70;99.90;;;;;;5056494;28;20028;-70
2023/01/13 07:50:07;;;;;;;25.42;4.80;;;7.70;99.90;;;;;;5034253;28;20096;-69
2023/01/13 07:52:33;;;;;;;20.67;4.00;;;7.70;99.90;;;;;;5039742;28;20537;-70
2023/01/13 07:54:59;;;;;;;25.70;5.78;;;7.70;99.90;;;;;;5035413;28;20129;-70
2023/01/13 07:57:24;;;;;;;24.45;4.13;;;7.80;99.90;;;;;;5035886;28;20040;-70
2023/01/13 07:59:50;;;;;;;23.73;5.43;;;7.80;99.90;;;;;;5035798;28;20044;-70
2023/01/13 08:02:16;;;;;;;24.75;4.82;;;7.80;99.90;;;;;;5053093;28;20040;-70
2023/01/13 08:04:42;;;;;;;26.27;4.65;;;7.90;99.90;;;;;;5054180;28;20036;-70
2023/01/13 08:07:07;;;;;;;42.08;6.00;;;7.80;99.90;;;;;;5073751;28;20033;-73
2023/01/13 08:09:33;;;;;;;25.65;5.00;;;7.90;99.90;;;;;;5073512;28;20048;-72
2023/01/13 08:14:43;;;;;;;26.42;4.70;;;8.00;99.90;;;;;;5055312;28;20059;-70
2023/01/13 08:17:09;;;;;;;28.00;5.15;;;8.00;99.90;;;;;;5073058;28;20036;-72
2023/01/13 08:19:35;;;;;;;25.92;4.47;;;7.90;99.90;;;;;;5055758;28;20032;-70
2023/01/13 08:22:01;;;;;;;22.25;5.95;;;8.00;99.90;;;;;;5040096;28;20095;-71
2023/01/13 08:24:26;;;;;;;19.25;4.20;;;8.00;99.90;;;;;;5035018;28;20083;-70
2023/01/13 08:26:52;;;;;;;23.33;5.40;;;8.00;99.90;;;;;;5046311;28;20033;-71
2023/01/13 08:29:18;;;;;;;24.67;5.43;;;8.00;99.90;;;;;;5073319;28;20112;-73
2023/01/13 08:31:44;;;;;;;21.70;5.80;;;8.00;99.90;;;;;;5072930;28;20051;-73
2023/01/13 08:34:10;;;;;;;26.90;5.10;;;8.00;99.90;;;;;;5055253;28;20056;-72
2023/01/13 08:36:35;;;;;;;27.58;4.68;;;8.00;99.90;;;;;;5073291;28;20053;-72
2023/01/13 08:39:01;;;;;;;27.33;4.40;;;8.10;99.90;;;;;;5072527;28;20032;-71
2023/01/13 08:44:11;;;;;;;26.60;5.90;;;8.10;99.90;;;;;;5072939;28;20078;-72
2023/01/13 08:46:37;;;;;;;24.17;4.65;;;8.20;99.90;;;;;;5055419;28;20048;-67
2023/01/13 08:49:04;;;;;;;21.25;4.18;;;8.20;99.90;;;;;;5054996;28;20101;-69
2023/01/13 08:51:30;;;;;;;21.73;4.13;;;8.30;99.90;;;;;;5036702;28;20098;-72
2023/01/13 08:53:55;;;;;;;28.13;4.68;;;8.30;99.90;;;;;;5067816;28;20033;-71
2023/01/13 08:56:21;;;;;;;27.05;4.70;;;8.40;99.90;;;;;;5042293;28;20036;-72
2023/01/13 08:58:47;;;;;;;26.42;4.65;;;8.40;99.90;;;;;;5054785;28;20079;-73
2023/01/13 09:01:17;;;;;;;25.15;5.07;;;8.40;99.90;;;;;;5035564;28;20044;-73
2023/01/13 09:03:42;;;;;;;23.05;5.35;;;8.40;99.90;;;;;;5043017;28;20060;-74
2023/01/13 09:06:08;;;;;;;30.77;4.75;;;8.30;99.90;;;;;;5052056;28;20037;-74
2023/01/13 09:08:34;;;;;;;16.80;4.70;;;8.30;99.90;;;;;;5034867;28;20099;-73
2023/01/13 09:11:00;;;;;;;23.88;5.05;;;8.20;99.90;;;;;;5050866;28;20040;-73
2023/01/13 09:13:25;;;;;;;22.98;5.03;;;8.20;99.90;;;;;;5067513;28;20044;-71
2023/01/13 09:15:55;;;;;;;30.33;5.88;;;8.20;99.90;;;;;;5063353;28;20047;-71
2023/01/13 09:18:20;;;;;;;20.10;4.22;;;8.20;99.90;;;;;;5072658;28;20036;-71
2023/01/13 09:20:46;;;;;;;23.60;4.88;;;8.20;99.90;;;;;;5038994;28;20072;-70
2023/01/13 09:23:12;;;;;;;21.30;4.97;;;8.20;99.90;;;;;;5047424;28;20064;-72
2023/01/13 09:25:38;;;;;;;20.60;4.55;;;8.20;99.90;;;;;;5048090;28;20037;-71
2023/01/13 09:28:04;;;;;;;24.98;6.70;;;8.20;99.90;;;;;;5032352;28;20035;-72
2023/01/13 09:30:30;;;;;;;20.17;3.63;;;8.20;99.90;;;;;;5064112;28;20075;-74
2023/01/13 09:35:44;;;;;;;22.33;6.13;;;8.30;99.90;;;;;;5068494;28;20047;-73
2023/01/13 09:38:09;;;;;;;20.42;4.13;;;8.30;99.90;;;;;;5063931;28;20048;-74
2023/01/13 09:40:39;;;;;;;20.58;3.50;;;8.30;99.90;;;;;;5050935;28;20116;-73
2023/01/13 09:49:15;;;;;;;24.48;5.90;;;8.30;99.90;;;;;;5040115;28;20048;-73
2023/01/13 09:51:47;;;;;;;21.83;4.13;;;8.40;99.90;;;;;;5029328;28;20058;-74
2023/01/13 09:54:31;;;;;;;26.45;5.60;;;8.40;99.90;;;;;;5026547;28;20041;-73
2023/01/13 09:56:58;;;;;;;21.98;3.97;;;8.30;99.90;;;;;;5013516;28;20099;-73
2023/01/13 09:59:28;;;;;;;29.00;5.63;;;8.20;99.90;;;;;;5041104;28;20045;-73
2023/01/13 10:02:27;;;;;;;19.67;4.32;;;8.20;99.90;;;;;;5031344;28;20052;-72
2023/01/13 10:05:14;;;;;;;27.67;4.85;;;8.10;99.90;;;;;;5026202;28;20060;-72
2023/01/13 10:07:52;;;;;;;21.77;4.47;;;8.10;99.90;;;;;;5049764;28;20045;-72
2023/01/13 10:10:33;;;;;;;22.35;4.18;;;8.10;99.90;;;;;;5031770;28;20106;-71
2023/01/13 10:13:18;;;;;;;25.55;4.60;;;8.10;99.90;;;;;;5031731;28;20460;-72
2023/01/13 10:16:12;;;;;;;20.95;4.72;;;8.10;99.90;;;;;;5031016;28;20535;-72
2023/01/13 10:18:52;;;;;;;19.10;5.65;;;8.10;99.90;;;;;;5042564;28;20045;-73
2023/01/13 10:21:27;;;;;;;21.23;4.97;;;8.20;99.90;;;;;;5040878;28;20072;-72
2023/01/13 10:23:59;;;;;;;22.25;4.50;;;8.20;99.90;;;;;;5032776;28;20079;-70
2023/01/13 10:26:41;;;;;;;18.92;5.05;;;8.20;99.90;;;;;;5051141;28;20041;-72
2023/01/13 10:29:25;;;;;;;21.80;3.95;;;8.20;99.90;;;;;;5029431;28;20048;-71
2023/01/13 10:31:52;;;;;;;29.63;4.57;;;8.20;99.90;;;;;;5048485;28;20382;-72
2023/01/13 10:34:19;;;;;;;18.40;4.25;;;8.20;99.90;;;;;;5013940;28;20037;-74
2023/01/13 10:37:03;;;;;;;19.27;4.15;;;8.20;99.90;;;;;;5030719;28;20497;-71
2023/01/13 10:39:40;;;;;;;17.73;3.88;;;8.20;99.90;;;;;;5029871;28;20041;-73
2023/01/13 10:42:16;;;;;;;21.63;5.38;;;8.20;99.90;;;;;;5029091;28;20124;-71
2023/01/13 10:44:49;;;;;;;27.27;4.63;;;8.30;99.90;;;;;;5022909;28;20053;-72
2023/01/13 10:47:33;;;;;;;21.63;3.92;;;8.30;99.90;;;;;;5051387;28;20052;-72
2023/01/13 10:50:21;;;;;;;18.08;4.35;;;8.40;99.90;;;;;;5059464;28;20045;-72
2023/01/13 10:53:02;;;;;;;18.58;5.45;;;8.50;99.90;;;;;;5043810;28;20033;-72
2023/01/13 10:55:36;;;;;;;18.48;3.90;;;8.50;99.90;;;;;;5068949;28;20055;-73
2023/01/13 10:58:18;;;;;;;15.38;3.03;;;8.50;99.90;;;;;;5050401;28;20103;-72
2023/01/13 11:00:54;;;;;;;11.98;3.45;;;8.50;99.90;;;;;;5035803;28;20044;-72
2023/01/13 11:03:24;;;;;;;14.50;4.28;;;8.50;99.90;;;;;;5035038;28;20055;-76
2023/01/13 11:05:55;;;;;;;17.88;2.97;;;8.60;99.90;;;;;;5014835;28;20040;-73
2023/01/13 11:08:44;;;;;;;18.25;3.92;;;8.70;99.90;;;;;;5059594;28;20060;-74
2023/01/13 11:11:42;;;;;;;17.90;4.05;;;8.70;99.90;;;;;;5052508;28;20440;-74
2023/01/13 11:14:40;;;;;;;16.58;3.03;;;8.70;99.90;;;;;;5019366;28;20052;-75
2023/01/13 11:17:39;;;;;;;11.85;3.05;;;8.70;99.90;;;;;;5041418;28;20810;-74
2023/01/13 11:20:29;;;;;;;21.05;3.25;;;8.80;99.90;;;;;;5027821;28;20128;-74
2023/01/13 11:23:01;;;;;;;16.13;3.83;;;8.80;99.90;;;;;;5046133;28;20059;-73
2023/01/13 11:25:45;;;;;;;13.88;3.35;;;8.80;99.90;;;;;;5047648;28;20056;-73
2023/01/13 11:28:34;;;;;;;24.92;3.75;;;8.70;99.90;;;;;;5054930;28;20088;-72
2023/01/13 11:31:16;;;;;;;22.13;5.50;;;8.70;99.90;;;;;;5069906;28;20044;-73
2023/01/13 11:34:13;;;;;;;13.38;3.40;;;8.80;99.90;;;;;;5069491;28;20039;-72
2023/01/13 11:36:55;;;;;;;14.50;2.83;;;8.80;99.90;;;;;;5026664;28;20041;-73
2023/01/13 11:39:46;;;;;;;17.38;4.18;;;8.90;99.90;;;;;;5028077;28;20040;-73
2023/01/13 11:42:24;;;;;;;15.63;3.63;;;8.90;99.90;;;;;;5062750;28;20366;-72
2023/01/13 11:45:21;;;;;;;9.55;2.85;;;8.90;99.90;;;;;;5051236;28;20056;-73
2023/01/13 11:48:00;;;;;;;15.90;4.32;;;9.00;99.90;;;;;;5051769;28;20068;-74
2023/01/13 11:51:03;;;;;;;14.32;3.15;;;9.00;99.90;;;;;;5043786;28;20047;-73
2023/01/13 11:53:29;;;;;;;13.25;3.15;;;9.00;99.90;;;;;;5046057;28;20033;-74
2023/01/13 11:56:15;;;;;;;15.68;3.63;;;9.10;99.90;;;;;;5035938;28;20072;-73
2023/01/13 11:59:18;;;;;;;14.07;3.28;;;9.10;99.90;;;;;;5030132;28;20081;-73
2023/01/13 12:02:06;;;;;;;16.00;2.90;;;9.20;99.90;;;;;;5061629;28;20485;-72
2023/01/13 12:05:04;;;;;;;11.60;2.78;;;9.20;99.90;;;;;;5051900;28;20454;-71
2023/01/13 12:07:48;;;;;;;12.25;2.40;;;9.30;99.90;;;;;;5013138;28;20041;-72
2023/01/13 12:10:17;;;;;;;13.68;2.90;;;9.30;99.90;;;;;;5025789;28;20029;-71
2023/01/13 12:13:05;;;;;;;12.80;2.50;;;9.30;99.90;;;;;;5063446;28;20092;-74
2023/01/13 12:15:39;;;;;;;11.40;2.38;;;9.20;99.90;;;;;;5022749;28;20234;-71
2023/01/13 12:18:29;;;;;;;26.02;4.95;;;9.20;99.90;;;;;;5036411;28;20054;-70
2023/01/13 12:21:31;;;;;;;14.82;3.38;;;9.20;99.90;;;;;;5047007;28;20037;-73
2023/01/13 12:24:28;;;;;;;18.63;3.35;;;9.20;99.90;;;;;;5012645;28;20052;-73
2023/01/13 12:27:01;;;;;;;15.82;2.78;;;9.20;99.90;;;;;;5046703;28;20548;-73
2023/01/13 12:29:32;;;;;;;14.38;2.88;;;9.20;99.90;;;;;;5067771;28;20105;-71
2023/01/13 12:32:02;;;;;;;11.73;2.33;;;9.20;99.90;;;;;;5054006;28;20131;-73
2023/01/13 12:35:00;;;;;;;13.50;2.65;;;9.20;99.90;;;;;;5024373;28;20155;-72
2023/01/13 12:37:45;;;;;;;11.43;2.33;;;9.20;99.90;;;;;;5052953;28;20041;-74
2023/01/13 12:40:13;;;;;;;8.85;2.40;;;9.20;99.90;;;;;;5038478;28;20127;-74
2023/01/13 12:45:48;;;;;;;16.50;5.38;;;9.30;99.90;;;;;;5069731;28;20086;-69
2023/01/13 12:48:47;;;;;;;21.20;6.30;;;9.30;99.90;;;;;;5036954;28;20500;-71
2023/01/13 12:51:56;;;;;;;13.07;4.38;;;9.30;99.90;;;;;;5035746;28;20076;-72
2023/01/13 12:54:54;;;;;;;15.05;2.60;;;9.30;99.90;;;;;;5071101;28;20613;-71
2023/01/13 12:57:31;;;;;;;9.90;2.13;;;9.30;99.90;;;;;;5051910;28;20059;-72
2023/01/13 13:00:03;;;;;;;16.25;3.95;;;9.30;99.90;;;;;;5052758;28;20037;-73
2023/01/13 13:02:43;;;;;;;18.48;2.88;;;9.20;99.90;;;;;;5071159;28;20389;-71
2023/01/13 13:05:24;;;;;;;15.75;3.03;;;9.20;99.90;;;;;;5052324;28;20049;-72
2023/01/13 13:08:18;;;;;;;14.90;4.00;;;9.20;99.90;;;;;;5070872;28;20196;-73
2023/01/13 13:14:12;;;;;;;14.20;3.10;;;9.20;99.90;;;;;;5059247;28;20055;-71
2023/01/13 13:17:07;;;;;;;7.88;2.22;;;9.30;99.90;;;;;;5047062;28;20043;-73
2023/01/13 13:19:36;;;;;;;14.85;2.70;;;9.30;99.90;;;;;;5039642;28;20167;-69
2023/01/13 13:22:12;;;;;;;7.57;2.00;;;9.30;99.90;;;;;;5027436;28;20068;-74
2023/01/13 13:25:07;;;;;;;12.10;2.72;;;9.30;99.90;;;;;;5053119;28;20097;-73
2023/01/13 13:28:01;;;;;;;14.30;2.80;;;9.30;99.90;;;;;;5052728;28;20043;-70
2023/01/13 13:30:49;;;;;;;11.73;2.33;;;9.20;99.90;;;;;;5070474;28;20489;-75
2023/01/13 13:33:53;;;;;;;12.30;2.05;;;9.20;99.90;;;;;;5070478;28;20072;-70
2023/01/13 13:36:57;;;;;;;15.73;3.30;;;9.20;99.90;;;;;;5031816;28;20458;-72
2023/01/13 13:48:29;;;;;;;8.73;2.53;;;9.10;99.90;;;;;;5052081;28;20562;-72
2023/01/13 13:51:06;;;;;;;14.00;2.50;;;9.10;99.90;;;;;;5068987;28;20488;-75
2023/01/13 13:53:48;;;;;;;9.02;2.22;;;9.00;99.90;;;;;;5023531;28;20037;-72
2023/01/13 13:56:21;;;;;;;15.15;2.63;;;9.10;99.90;;;;;;5069998;28;20043;-70
2023/01/13 13:58:51;;;;;;;12.77;2.20;;;9.00;99.90;;;;;;5051412;28;20051;-74
2023/01/13 14:01:28;;;;;;;12.10;2.53;;;9.10;99.90;;;;;;5034470;28;20040;-75
2023/01/13 14:04:08;;;;;;;19.35;3.45;;;9.10;99.90;;;;;;5026662;28;20373;-70
2023/01/13 14:06:49;;;;;;;10.48;2.17;;;9.10;99.90;;;;;;5069471;28;20037;-72
2023/01/13 14:09:19;;;;;;;10.38;2.55;;;9.10;99.90;;;;;;5069670;28;20540;-70
2023/01/13 14:12:08;;;;;;;16.45;2.85;;;9.10;99.90;;;;;;5062099;28;20048;-70
2023/01/13 14:14:43;;;;;;;13.10;2.97;;;9.10;99.90;;;;;;5031137;28;20037;-73
2023/01/13 14:17:30;;;;;;;7.78;2.30;;;9.10;99.90;;;;;;5027657;28;20053;-71
2023/01/13 14:20:13;;;;;;;18.58;2.90;;;9.20;99.90;;;;;;5009076;28;20125;-72
2023/01/13 14:22:52;;;;;;;11.63;2.25;;;9.20;99.90;;;;;;5024096;28;20091;-73
2023/01/13 14:25:35;;;;;;;;;;;9.20;99.90;;;;;;5019462;28;20045;-71
2023/01/13 14:28:23;;;;;;;15.75;2.90;;;9.20;99.90;;;;;;5070134;28;19917;-71